sensor_id;sensor_type;location;lat;lon;timestamp;P1;durP1;ratioP1;P2;durP2;ratioP2
62149;SDS011;48134;53.586;10.610;2022-07-29T00:02:14;3.65;;;1.63;;
62149;SDS011;48134;53.586;10.610;2022-07-29T00:04:47;6.15;;;1.60;;
62149;SDS011;48134;53.586;10.610;2022-07-29T00:07:21;3.25;;;1.40;;
62149;SDS011;48134;53.586;10.610;2022-07-29T00:09:55;5.03;;;1.70;;
62149;SDS011;48134;53.586;10.610;2022-07-29T00:12:28;3.10;;;1.40;;
62149;SDS011;48134;53.586;10.610;2022-07-29T00:15:02;3.33;;;1.50;;
62149;SDS011;48134;53.586;10.610;2022-07-29T00:17:36;2.40;;;1.40;;
62149;SDS011;48134;53.586;10.610;2022-07-29T00:20:09;4.18;;;1.70;;
62149;SDS011;48134;53.586;10.610;2022-07-29T00:22:43;3.80;;;1.60;;
62149;SDS011;48134;53.586;10.610;2022-07-29T00:25:17;4.93;;;1.50;;
62149;SDS011;48134;53.586;10.610;2022-07-29T00:27:50;4.07;;;1.65;;
62149;SDS011;48134;53.586;10.610;2022-07-29T00:30:19;3.63;;;1.52;;
62149;SDS011;48134;53.586;10.610;2022-07-29T00:32:52;4.28;;;1.90;;
62149;SDS011;48134;53.586;10.610;2022-07-29T00:35:20;4.38;;;1.98;;
62149;SDS011;48134;53.586;10.610;2022-07-29T00:38:11;6.50;;;1.70;;
62149;SDS011;48134;53.586;10.610;2022-07-29T00:40:47;4.35;;;1.85;;
62149;SDS011;48134;53.586;10.610;2022-07-29T00:43:20;5.90;;;1.85;;
62149;SDS011;48134;53.586;10.610;2022-07-29T00:45:48;5.85;;;1.90;;
62149;SDS011;48134;53.586;10.610;2022-07-29T00:48:17;3.88;;;1.70;;
62149;SDS011;48134;53.586;10.610;2022-07-29T00:50:50;4.97;;;1.98;;
62149;SDS011;48134;53.586;10.610;2022-07-29T00:53:23;3.28;;;1.80;;
62149;SDS011;48134;53.586;10.610;2022-07-29T00:55:58;6.97;;;2.00;;
62149;SDS011;48134;53.586;10.610;2022-07-29T00:58:32;4.13;;;1.93;;
62149;SDS011;48134;53.586;10.610;2022-07-29T01:01:00;6.38;;;2.10;;
62149;SDS011;48134;53.586;10.610;2022-07-29T01:03:33;5.88;;;1.88;;
62149;SDS011;48134;53.586;10.610;2022-07-29T01:06:02;4.63;;;1.80;;
62149;SDS011;48134;53.586;10.610;2022-07-29T01:08:35;5.07;;;1.90;;
62149;SDS011;48134;53.586;10.610;2022-07-29T01:11:10;5.22;;;1.80;;
62149;SDS011;48134;53.586;10.610;2022-07-29T01:13:39;5.20;;;2.17;;
62149;SDS011;48134;53.586;10.610;2022-07-29T01:16:11;5.45;;;2.20;;
62149;SDS011;48134;53.586;10.610;2022-07-29T01:18:48;4.65;;;1.92;;
62149;SDS011;48134;53.586;10.610;2022-07-29T01:21:37;6.53;;;1.92;;
62149;SDS011;48134;53.586;10.610;2022-07-29T01:24:30;5.53;;;2.07;;
62149;SDS011;48134;53.586;10.610;2022-07-29T01:27:16;5.03;;;2.03;;
62149;SDS011;48134;53.586;10.610;2022-07-29T01:30:01;5.00;;;2.08;;
62149;SDS011;48134;53.586;10.610;2022-07-29T01:32:36;4.43;;;1.90;;
62149;SDS011;48134;53.586;10.610;2022-07-29T01:35:13;5.00;;;2.10;;
62149;SDS011;48134;53.586;10.610;2022-07-29T01:37:51;5.87;;;2.07;;
62149;SDS011;48134;53.586;10.610;2022-07-29T01:40:33;4.35;;;1.80;;
62149;SDS011;48134;53.586;10.610;2022-07-29T01:43:11;4.00;;;2.00;;
62149;SDS011;48134;53.586;10.610;2022-07-29T01:45:50;6.43;;;1.95;;
62149;SDS011;48134;53.586;10.610;2022-07-29T01:48:31;7.10;;;2.15;;
62149;SDS011;48134;53.586;10.610;2022-07-29T01:51:12;4.10;;;2.00;;
62149;SDS011;48134;53.586;10.610;2022-07-29T01:53:50;5.20;;;1.98;;
62149;SDS011;48134;53.586;10.610;2022-07-29T01:56:26;6.88;;;2.00;;
62149;SDS011;48134;53.586;10.610;2022-07-29T01:59:06;6.23;;;2.10;;
62149;SDS011;48134;53.586;10.610;2022-07-29T02:01:42;6.07;;;1.93;;
62149;SDS011;48134;53.586;10.610;2022-07-29T02:04:13;4.32;;;1.85;;
62149;SDS011;48134;53.586;10.610;2022-07-29T02:06:44;6.22;;;2.00;;
62149;SDS011;48134;53.586;10.610;2022-07-29T02:09:21;6.13;;;2.00;;
62149;SDS011;48134;53.586;10.610;2022-07-29T02:11:56;6.10;;;2.28;;
62149;SDS011;48134;53.586;10.610;2022-07-29T02:14:28;4.75;;;1.92;;
62149;SDS011;48134;53.586;10.610;2022-07-29T02:17:02;4.30;;;1.90;;
62149;SDS011;48134;53.586;10.610;2022-07-29T02:19:36;4.70;;;2.00;;
62149;SDS011;48134;53.586;10.610;2022-07-29T02:22:10;4.25;;;2.00;;
62149;SDS011;48134;53.586;10.610;2022-07-29T02:24:45;3.40;;;1.80;;
62149;SDS011;48134;53.586;10.610;2022-07-29T02:27:20;5.55;;;2.28;;
62149;SDS011;48134;53.586;10.610;2022-07-29T02:29:55;7.25;;;2.30;;
62149;SDS011;48134;53.586;10.610;2022-07-29T02:32:32;5.73;;;2.00;;
62149;SDS011;48134;53.586;10.610;2022-07-29T02:35:08;4.53;;;2.10;;
62149;SDS011;48134;53.586;10.610;2022-07-29T02:37:43;7.55;;;2.30;;
62149;SDS011;48134;53.586;10.610;2022-07-29T02:40:38;5.00;;;2.10;;
62149;SDS011;48134;53.586;10.610;2022-07-29T02:43:10;4.97;;;2.10;;
62149;SDS011;48134;53.586;10.610;2022-07-29T02:45:38;8.20;;;2.30;;
62149;SDS011;48134;53.586;10.610;2022-07-29T02:48:09;4.80;;;2.08;;
62149;SDS011;48134;53.586;10.610;2022-07-29T02:50:48;5.78;;;2.22;;
62149;SDS011;48134;53.586;10.610;2022-07-29T02:53:24;5.10;;;2.35;;
62149;SDS011;48134;53.586;10.610;2022-07-29T02:55:55;6.05;;;2.20;;
62149;SDS011;48134;53.586;10.610;2022-07-29T02:58:32;5.30;;;2.20;;
62149;SDS011;48134;53.586;10.610;2022-07-29T03:01:08;5.95;;;2.38;;
62149;SDS011;48134;53.586;10.610;2022-07-29T03:03:46;6.20;;;2.10;;
62149;SDS011;48134;53.586;10.610;2022-07-29T03:06:16;5.70;;;2.20;;
62149;SDS011;48134;53.586;10.610;2022-07-29T03:08:45;6.13;;;2.30;;
62149;SDS011;48134;53.586;10.610;2022-07-29T03:11:19;4.85;;;2.15;;
62149;SDS011;48134;53.586;10.610;2022-07-29T03:13:53;6.97;;;2.38;;
62149;SDS011;48134;53.586;10.610;2022-07-29T03:16:27;5.20;;;2.20;;
62149;SDS011;48134;53.586;10.610;2022-07-29T03:18:58;6.15;;;2.20;;
62149;SDS011;48134;53.586;10.610;2022-07-29T03:21:31;5.65;;;2.13;;
62149;SDS011;48134;53.586;10.610;2022-07-29T03:24:05;4.65;;;2.30;;
62149;SDS011;48134;53.586;10.610;2022-07-29T03:26:34;5.50;;;2.13;;
62149;SDS011;48134;53.586;10.610;2022-07-29T03:29:07;5.28;;;2.20;;
62149;SDS011;48134;53.586;10.610;2022-07-29T03:31:40;6.15;;;2.40;;
62149;SDS011;48134;53.586;10.610;2022-07-29T03:34:15;4.40;;;2.00;;
62149;SDS011;48134;53.586;10.610;2022-07-29T03:36:48;6.07;;;2.22;;
62149;SDS011;48134;53.586;10.610;2022-07-29T03:39:18;5.38;;;2.10;;
62149;SDS011;48134;53.586;10.610;2022-07-29T03:41:55;7.30;;;2.25;;
62149;SDS011;48134;53.586;10.610;2022-07-29T03:44:29;6.55;;;2.28;;
62149;SDS011;48134;53.586;10.610;2022-07-29T03:46:59;6.05;;;2.17;;
62149;SDS011;48134;53.586;10.610;2022-07-29T03:49:36;4.78;;;2.15;;
62149;SDS011;48134;53.586;10.610;2022-07-29T03:52:05;4.40;;;2.00;;
62149;SDS011;48134;53.586;10.610;2022-07-29T03:54:38;4.30;;;2.17;;
62149;SDS011;48134;53.586;10.610;2022-07-29T03:57:12;5.72;;;2.30;;
62149;SDS011;48134;53.586;10.610;2022-07-29T03:59:47;6.20;;;2.50;;
62149;SDS011;48134;53.586;10.610;2022-07-29T04:02:21;5.68;;;2.10;;
62149;SDS011;48134;53.586;10.610;2022-07-29T04:04:57;6.75;;;2.28;;
62149;SDS011;48134;53.586;10.610;2022-07-29T04:07:30;5.47;;;2.03;;
62149;SDS011;48134;53.586;10.610;2022-07-29T04:10:04;5.43;;;2.20;;
62149;SDS011;48134;53.586;10.610;2022-07-29T04:12:33;5.57;;;2.00;;
62149;SDS011;48134;53.586;10.610;2022-07-29T04:15:07;6.28;;;2.28;;
62149;SDS011;48134;53.586;10.610;2022-07-29T04:17:35;5.65;;;2.30;;
62149;SDS011;48134;53.586;10.610;2022-07-29T04:20:06;6.53;;;2.15;;
62149;SDS011;48134;53.586;10.610;2022-07-29T04:22:39;6.07;;;2.17;;
62149;SDS011;48134;53.586;10.610;2022-07-29T04:25:08;4.55;;;2.10;;
62149;SDS011;48134;53.586;10.610;2022-07-29T04:27:41;4.95;;;2.08;;
62149;SDS011;48134;53.586;10.610;2022-07-29T04:30:28;6.38;;;2.70;;
62149;SDS011;48134;53.586;10.610;2022-07-29T04:33:03;7.18;;;2.38;;
62149;SDS011;48134;53.586;10.610;2022-07-29T04:35:39;6.60;;;2.50;;
62149;SDS011;48134;53.586;10.610;2022-07-29T04:38:12;4.70;;;2.20;;
62149;SDS011;48134;53.586;10.610;2022-07-29T04:40:45;6.55;;;2.33;;
62149;SDS011;48134;53.586;10.610;2022-07-29T04:43:18;5.57;;;2.40;;
62149;SDS011;48134;53.586;10.610;2022-07-29T04:45:46;7.07;;;2.30;;
62149;SDS011;48134;53.586;10.610;2022-07-29T04:48:19;5.65;;;2.30;;
62149;SDS011;48134;53.586;10.610;2022-07-29T04:50:54;5.00;;;2.03;;
62149;SDS011;48134;53.586;10.610;2022-07-29T04:53:27;5.55;;;2.03;;
62149;SDS011;48134;53.586;10.610;2022-07-29T04:56:00;5.95;;;2.28;;
62149;SDS011;48134;53.586;10.610;2022-07-29T04:58:34;5.85;;;2.20;;
62149;SDS011;48134;53.586;10.610;2022-07-29T05:01:08;5.85;;;2.55;;
62149;SDS011;48134;53.586;10.610;2022-07-29T05:03:41;6.22;;;2.30;;
62149;SDS011;48134;53.586;10.610;2022-07-29T05:06:11;7.13;;;2.30;;
62149;SDS011;48134;53.586;10.610;2022-07-29T05:08:39;4.35;;;2.10;;
62149;SDS011;48134;53.586;10.610;2022-07-29T05:11:12;4.95;;;2.20;;
62149;SDS011;48134;53.586;10.610;2022-07-29T05:13:45;6.00;;;2.30;;
62149;SDS011;48134;53.586;10.610;2022-07-29T05:16:18;5.68;;;2.10;;
62149;SDS011;48134;53.586;10.610;2022-07-29T05:18:52;6.25;;;1.92;;
62149;SDS011;48134;53.586;10.610;2022-07-29T05:21:26;5.15;;;1.92;;
62149;SDS011;48134;53.586;10.610;2022-07-29T05:23:59;3.83;;;1.90;;
62149;SDS011;48134;53.586;10.610;2022-07-29T05:26:28;4.82;;;1.90;;
62149;SDS011;48134;53.586;10.610;2022-07-29T05:29:01;7.72;;;2.40;;
62149;SDS011;48134;53.586;10.610;2022-07-29T05:31:34;5.13;;;1.90;;
62149;SDS011;48134;53.586;10.610;2022-07-29T05:34:07;7.18;;;1.95;;
62149;SDS011;48134;53.586;10.610;2022-07-29T05:36:42;3.70;;;1.75;;
62149;SDS011;48134;53.586;10.610;2022-07-29T05:39:15;3.97;;;1.70;;
62149;SDS011;48134;53.586;10.610;2022-07-29T05:41:48;6.25;;;2.50;;
62149;SDS011;48134;53.586;10.610;2022-07-29T05:44:21;4.15;;;1.80;;
62149;SDS011;48134;53.586;10.610;2022-07-29T05:46:54;4.93;;;1.95;;
62149;SDS011;48134;53.586;10.610;2022-07-29T05:49:27;5.20;;;2.00;;
62149;SDS011;48134;53.586;10.610;2022-07-29T05:51:57;5.80;;;1.83;;
62149;SDS011;48134;53.586;10.610;2022-07-29T05:54:30;5.40;;;1.90;;
62149;SDS011;48134;53.586;10.610;2022-07-29T05:56:59;5.15;;;1.90;;
62149;SDS011;48134;53.586;10.610;2022-07-29T05:59:27;4.07;;;1.90;;
62149;SDS011;48134;53.586;10.610;2022-07-29T06:02:00;6.97;;;1.90;;
62149;SDS011;48134;53.586;10.610;2022-07-29T06:04:28;4.43;;;1.85;;
62149;SDS011;48134;53.586;10.610;2022-07-29T06:06:58;4.35;;;1.77;;
62149;SDS011;48134;53.586;10.610;2022-07-29T06:09:31;5.47;;;1.98;;
62149;SDS011;48134;53.586;10.610;2022-07-29T06:12:05;4.45;;;1.88;;
62149;SDS011;48134;53.586;10.610;2022-07-29T06:14:38;3.13;;;1.80;;
62149;SDS011;48134;53.586;10.610;2022-07-29T06:17:07;4.03;;;1.60;;
62149;SDS011;48134;53.586;10.610;2022-07-29T06:19:35;4.03;;;1.80;;
62149;SDS011;48134;53.586;10.610;2022-07-29T06:22:10;4.50;;;1.80;;
62149;SDS011;48134;53.586;10.610;2022-07-29T06:24:43;4.50;;;1.98;;
62149;SDS011;48134;53.586;10.610;2022-07-29T06:27:16;5.35;;;1.85;;
62149;SDS011;48134;53.586;10.610;2022-07-29T06:29:50;5.00;;;1.90;;
62149;SDS011;48134;53.586;10.610;2022-07-29T06:32:18;4.35;;;1.70;;
62149;SDS011;48134;53.586;10.610;2022-07-29T06:34:51;3.83;;;1.63;;
62149;SDS011;48134;53.586;10.610;2022-07-29T06:37:21;5.18;;;1.98;;
62149;SDS011;48134;53.586;10.610;2022-07-29T06:39:54;3.67;;;1.85;;
62149;SDS011;48134;53.586;10.610;2022-07-29T06:42:41;5.82;;;1.90;;
62149;SDS011;48134;53.586;10.610;2022-07-29T06:45:14;4.97;;;1.80;;
62149;SDS011;48134;53.586;10.610;2022-07-29T06:47:48;4.03;;;1.70;;
62149;SDS011;48134;53.586;10.610;2022-07-29T06:50:21;5.37;;;1.70;;
62149;SDS011;48134;53.586;10.610;2022-07-29T06:52:56;4.05;;;1.60;;
62149;SDS011;48134;53.586;10.610;2022-07-29T06:55:29;6.30;;;1.70;;
62149;SDS011;48134;53.586;10.610;2022-07-29T06:58:02;5.43;;;1.60;;
62149;SDS011;48134;53.586;10.610;2022-07-29T07:00:35;3.03;;;1.60;;
62149;SDS011;48134;53.586;10.610;2022-07-29T07:03:08;7.80;;;1.52;;
62149;SDS011;48134;53.586;10.610;2022-07-29T07:05:42;4.80;;;1.80;;
62149;SDS011;48134;53.586;10.610;2022-07-29T07:08:17;3.83;;;1.52;;
62149;SDS011;48134;53.586;10.610;2022-07-29T07:10:46;3.38;;;1.58;;
62149;SDS011;48134;53.586;10.610;2022-07-29T07:13:19;3.90;;;1.60;;
62149;SDS011;48134;53.586;10.610;2022-07-29T07:15:47;3.58;;;1.50;;
62149;SDS011;48134;53.586;10.610;2022-07-29T07:18:22;5.35;;;1.50;;
62149;SDS011;48134;53.586;10.610;2022-07-29T07:20:55;4.35;;;1.52;;
62149;SDS011;48134;53.586;10.610;2022-07-29T07:23:30;3.67;;;1.50;;
62149;SDS011;48134;53.586;10.610;2022-07-29T07:26:03;3.13;;;1.50;;
62149;SDS011;48134;53.586;10.610;2022-07-29T07:28:37;4.80;;;1.75;;
62149;SDS011;48134;53.586;10.610;2022-07-29T07:31:05;5.07;;;1.77;;
62149;SDS011;48134;53.586;10.610;2022-07-29T07:33:38;4.00;;;1.60;;
62149;SDS011;48134;53.586;10.610;2022-07-29T07:36:07;6.22;;;1.80;;
62149;SDS011;48134;53.586;10.610;2022-07-29T07:38:41;3.60;;;1.55;;
62149;SDS011;48134;53.586;10.610;2022-07-29T07:41:09;2.77;;;1.40;;
62149;SDS011;48134;53.586;10.610;2022-07-29T07:43:42;4.20;;;1.90;;
62149;SDS011;48134;53.586;10.610;2022-07-29T07:46:16;3.40;;;1.45;;
62149;SDS011;48134;53.586;10.610;2022-07-29T07:48:49;3.97;;;1.73;;
62149;SDS011;48134;53.586;10.610;2022-07-29T07:51:18;6.10;;;1.67;;
62149;SDS011;48134;53.586;10.610;2022-07-29T07:53:53;4.25;;;1.40;;
62149;SDS011;48134;53.586;10.610;2022-07-29T07:56:26;6.32;;;1.70;;
62149;SDS011;48134;53.586;10.610;2022-07-29T07:58:59;3.95;;;1.60;;
62149;SDS011;48134;53.586;10.610;2022-07-29T08:01:28;3.95;;;1.42;;
62149;SDS011;48134;53.586;10.610;2022-07-29T08:04:01;3.50;;;1.50;;
62149;SDS011;48134;53.586;10.610;2022-07-29T08:06:29;3.92;;;1.50;;
62149;SDS011;48134;53.586;10.610;2022-07-29T08:08:59;3.50;;;1.50;;
62149;SDS011;48134;53.586;10.610;2022-07-29T08:11:32;7.15;;;1.70;;
62149;SDS011;48134;53.586;10.610;2022-07-29T08:14:05;4.10;;;1.70;;
62149;SDS011;48134;53.586;10.610;2022-07-29T08:16:38;7.13;;;1.40;;
62149;SDS011;48134;53.586;10.610;2022-07-29T08:19:12;2.95;;;1.50;;
62149;SDS011;48134;53.586;10.610;2022-07-29T08:21:45;3.73;;;1.40;;
62149;SDS011;48134;53.586;10.610;2022-07-29T08:24:14;4.32;;;1.60;;
62149;SDS011;48134;53.586;10.610;2022-07-29T08:27:00;3.22;;;1.60;;
62149;SDS011;48134;53.586;10.610;2022-07-29T08:29:33;5.10;;;1.50;;
62149;SDS011;48134;53.586;10.610;2022-07-29T08:32:06;4.32;;;1.70;;
62149;SDS011;48134;53.586;10.610;2022-07-29T08:34:40;3.97;;;1.40;;
62149;SDS011;48134;53.586;10.610;2022-07-29T08:37:13;3.65;;;1.50;;
62149;SDS011;48134;53.586;10.610;2022-07-29T08:39:47;4.05;;;1.42;;
62149;SDS011;48134;53.586;10.610;2022-07-29T08:42:20;4.22;;;1.70;;
62149;SDS011;48134;53.586;10.610;2022-07-29T08:44:54;4.20;;;1.50;;
62149;SDS011;48134;53.586;10.610;2022-07-29T08:47:27;7.43;;;1.60;;
62149;SDS011;48134;53.586;10.610;2022-07-29T08:50:00;5.35;;;1.60;;
62149;SDS011;48134;53.586;10.610;2022-07-29T08:52:29;3.92;;;1.52;;
62149;SDS011;48134;53.586;10.610;2022-07-29T08:55:09;5.30;;;1.40;;
62149;SDS011;48134;53.586;10.610;2022-07-29T08:57:43;5.00;;;1.50;;
62149;SDS011;48134;53.586;10.610;2022-07-29T09:00:13;5.30;;;1.40;;
62149;SDS011;48134;53.586;10.610;2022-07-29T09:02:50;3.15;;;1.45;;
62149;SDS011;48134;53.586;10.610;2022-07-29T09:05:28;3.50;;;1.50;;
62149;SDS011;48134;53.586;10.610;2022-07-29T09:08:02;4.75;;;1.45;;
62149;SDS011;48134;53.586;10.610;2022-07-29T09:10:38;5.82;;;1.40;;
62149;SDS011;48134;53.586;10.610;2022-07-29T09:13:12;2.95;;;1.40;;
62149;SDS011;48134;53.586;10.610;2022-07-29T09:15:45;2.67;;;1.27;;
62149;SDS011;48134;53.586;10.610;2022-07-29T09:18:32;5.53;;;1.77;;
62149;SDS011;48134;53.586;10.610;2022-07-29T09:21:09;4.55;;;1.45;;
62149;SDS011;48134;53.586;10.610;2022-07-29T09:24:03;4.25;;;1.20;;
62149;SDS011;48134;53.586;10.610;2022-07-29T09:26:40;3.15;;;1.30;;
62149;SDS011;48134;53.586;10.610;2022-07-29T09:29:14;4.82;;;1.40;;
62149;SDS011;48134;53.586;10.610;2022-07-29T09:31:44;3.00;;;1.40;;
62149;SDS011;48134;53.586;10.610;2022-07-29T09:34:23;5.68;;;1.55;;
62149;SDS011;48134;53.586;10.610;2022-07-29T09:36:57;5.60;;;1.52;;
62149;SDS011;48134;53.586;10.610;2022-07-29T09:39:31;3.70;;;1.40;;
62149;SDS011;48134;53.586;10.610;2022-07-29T09:42:03;4.47;;;1.55;;
62149;SDS011;48134;53.586;10.610;2022-07-29T09:44:41;3.20;;;1.30;;
62149;SDS011;48134;53.586;10.610;2022-07-29T09:47:19;3.30;;;1.30;;
62149;SDS011;48134;53.586;10.610;2022-07-29T09:49:55;3.17;;;1.25;;
62149;SDS011;48134;53.586;10.610;2022-07-29T09:52:30;3.38;;;1.30;;
62149;SDS011;48134;53.586;10.610;2022-07-29T09:55:04;5.95;;;1.30;;
62149;SDS011;48134;53.586;10.610;2022-07-29T09:57:34;3.75;;;1.30;;
62149;SDS011;48134;53.586;10.610;2022-07-29T10:00:08;7.95;;;1.30;;
62149;SDS011;48134;53.586;10.610;2022-07-29T10:02:43;4.20;;;1.20;;
62149;SDS011;48134;53.586;10.610;2022-07-29T10:05:19;7.82;;;1.40;;
62149;SDS011;48134;53.586;10.610;2022-07-29T10:07:54;4.00;;;1.20;;
62149;SDS011;48134;53.586;10.610;2022-07-29T10:10:28;3.13;;;1.20;;
62149;SDS011;48134;53.586;10.610;2022-07-29T10:13:05;4.50;;;1.33;;
62149;SDS011;48134;53.586;10.610;2022-07-29T10:15:40;4.70;;;1.20;;
62149;SDS011;48134;53.586;10.610;2022-07-29T10:18:15;3.87;;;1.30;;
62149;SDS011;48134;53.586;10.610;2022-07-29T10:20:51;3.63;;;1.30;;
62149;SDS011;48134;53.586;10.610;2022-07-29T10:23:20;3.53;;;1.30;;
62149;SDS011;48134;53.586;10.610;2022-07-29T10:25:54;4.57;;;1.20;;
62149;SDS011;48134;53.586;10.610;2022-07-29T10:28:28;4.07;;;1.27;;
62149;SDS011;48134;53.586;10.610;2022-07-29T10:31:04;5.45;;;1.27;;
62149;SDS011;48134;53.586;10.610;2022-07-29T10:33:41;5.72;;;1.40;;
62149;SDS011;48134;53.586;10.610;2022-07-29T10:36:27;3.55;;;1.50;;
62149;SDS011;48134;53.586;10.610;2022-07-29T10:39:18;3.10;;;1.15;;
62149;SDS011;48134;53.586;10.610;2022-07-29T10:42:06;4.00;;;1.30;;
62149;SDS011;48134;53.586;10.610;2022-07-29T10:44:48;8.20;;;1.30;;
62149;SDS011;48134;53.586;10.610;2022-07-29T10:47:22;5.50;;;1.20;;
62149;SDS011;48134;53.586;10.610;2022-07-29T10:49:56;3.50;;;1.20;;
62149;SDS011;48134;53.586;10.610;2022-07-29T10:55:32;4.22;;;1.35;;
62149;SDS011;48134;53.586;10.610;2022-07-29T10:58:10;3.50;;;1.35;;
62149;SDS011;48134;53.586;10.610;2022-07-29T11:00:47;4.22;;;1.23;;
62149;SDS011;48134;53.586;10.610;2022-07-29T11:03:42;4.32;;;1.25;;
62149;SDS011;48134;53.586;10.610;2022-07-29T11:06:17;3.40;;;1.30;;
62149;SDS011;48134;53.586;10.610;2022-07-29T11:11:48;2.72;;;1.20;;
62149;SDS011;48134;53.586;10.610;2022-07-29T11:17:25;3.10;;;1.30;;
62149;SDS011;48134;53.586;10.610;2022-07-29T11:23:19;4.93;;;1.30;;
62149;SDS011;48134;53.586;10.610;2022-07-29T11:26:14;4.80;;;1.50;;
62149;SDS011;48134;53.586;10.610;2022-07-29T11:28:53;2.85;;;1.15;;
62149;SDS011;48134;53.586;10.610;2022-07-29T11:31:36;3.90;;;1.40;;
62149;SDS011;48134;53.586;10.610;2022-07-29T11:34:19;3.45;;;1.33;;
62149;SDS011;48134;53.586;10.610;2022-07-29T11:37:16;2.73;;;1.17;;
62149;SDS011;48134;53.586;10.610;2022-07-29T11:40:10;4.32;;;1.30;;
62149;SDS011;48134;53.586;10.610;2022-07-29T11:42:45;4.13;;;1.30;;
62149;SDS011;48134;53.586;10.610;2022-07-29T11:45:20;3.17;;;1.15;;
62149;SDS011;48134;53.586;10.610;2022-07-29T11:47:59;3.95;;;1.30;;
62149;SDS011;48134;53.586;10.610;2022-07-29T11:50:35;4.82;;;1.17;;
62149;SDS011;48134;53.586;10.610;2022-07-29T11:53:10;5.80;;;1.02;;
62149;SDS011;48134;53.586;10.610;2022-07-29T11:55:44;3.73;;;1.27;;
62149;SDS011;48134;53.586;10.610;2022-07-29T11:58:12;3.57;;;1.00;;
62149;SDS011;48134;53.586;10.610;2022-07-29T12:00:45;5.67;;;1.37;;
62149;SDS011;48134;53.586;10.610;2022-07-29T12:03:23;4.65;;;1.20;;
62149;SDS011;48134;53.586;10.610;2022-07-29T12:05:58;4.63;;;1.27;;
62149;SDS011;48134;53.586;10.610;2022-07-29T12:08:38;2.95;;;1.17;;
62149;SDS011;48134;53.586;10.610;2022-07-29T12:11:17;2.55;;;1.05;;
62149;SDS011;48134;53.586;10.610;2022-07-29T12:13:52;2.23;;;1.07;;
62149;SDS011;48134;53.586;10.610;2022-07-29T12:16:33;4.47;;;1.15;;
62149;SDS011;48134;53.586;10.610;2022-07-29T12:19:07;2.85;;;1.13;;
62149;SDS011;48134;53.586;10.610;2022-07-29T12:21:45;2.53;;;1.20;;
62149;SDS011;48134;53.586;10.610;2022-07-29T12:24:20;3.30;;;1.30;;
62149;SDS011;48134;53.586;10.610;2022-07-29T12:26:54;2.97;;;1.20;;
62149;SDS011;48134;53.586;10.610;2022-07-29T12:29:29;5.13;;;1.25;;
62149;SDS011;48134;53.586;10.610;2022-07-29T12:32:03;4.50;;;1.27;;
62149;SDS011;48134;53.586;10.610;2022-07-29T12:34:37;5.15;;;1.10;;
62149;SDS011;48134;53.586;10.610;2022-07-29T12:37:13;3.47;;;1.10;;
62149;SDS011;48134;53.586;10.610;2022-07-29T12:39:46;3.50;;;1.23;;
62149;SDS011;48134;53.586;10.610;2022-07-29T12:42:19;4.28;;;1.30;;
62149;SDS011;48134;53.586;10.610;2022-07-29T12:44:52;4.63;;;1.40;;
62149;SDS011;48134;53.586;10.610;2022-07-29T12:47:21;3.28;;;1.35;;
62149;SDS011;48134;53.586;10.610;2022-07-29T12:49:50;2.87;;;1.20;;
62149;SDS011;48134;53.586;10.610;2022-07-29T12:52:40;5.07;;;1.40;;
62149;SDS011;48134;53.586;10.610;2022-07-29T12:55:14;3.27;;;1.30;;
62149;SDS011;48134;53.586;10.610;2022-07-29T12:57:47;3.10;;;1.20;;
62149;SDS011;48134;53.586;10.610;2022-07-29T13:00:22;2.50;;;1.10;;
62149;SDS011;48134;53.586;10.610;2022-07-29T13:02:57;4.93;;;1.20;;
62149;SDS011;48134;53.586;10.610;2022-07-29T13:05:41;2.17;;;1.30;;
62149;SDS011;48134;53.586;10.610;2022-07-29T13:08:18;3.72;;;1.20;;
62149;SDS011;48134;53.586;10.610;2022-07-29T13:10:51;3.45;;;1.38;;
62149;SDS011;48134;53.586;10.610;2022-07-29T13:13:19;3.03;;;1.43;;
62149;SDS011;48134;53.586;10.610;2022-07-29T13:16:04;3.75;;;1.50;;
62149;SDS011;48134;53.586;10.610;2022-07-29T13:18:34;3.70;;;1.33;;
62149;SDS011;48134;53.586;10.610;2022-07-29T13:21:10;3.42;;;1.33;;
62149;SDS011;48134;53.586;10.610;2022-07-29T13:23:40;12.00;;;1.60;;
62149;SDS011;48134;53.586;10.610;2022-07-29T13:26:14;5.30;;;1.60;;
62149;SDS011;48134;53.586;10.610;2022-07-29T13:28:51;8.05;;;1.58;;
62149;SDS011;48134;53.586;10.610;2022-07-29T13:31:19;4.40;;;1.45;;
62149;SDS011;48134;53.586;10.610;2022-07-29T13:33:52;8.80;;;1.70;;
62149;SDS011;48134;53.586;10.610;2022-07-29T13:36:25;10.20;;;1.70;;
62149;SDS011;48134;53.586;10.610;2022-07-29T13:39:00;5.97;;;1.77;;
62149;SDS011;48134;53.586;10.610;2022-07-29T13:41:34;4.78;;;1.70;;
62149;SDS011;48134;53.586;10.610;2022-07-29T13:44:07;3.65;;;1.50;;
62149;SDS011;48134;53.586;10.610;2022-07-29T13:46:40;5.22;;;1.60;;
62149;SDS011;48134;53.586;10.610;2022-07-29T13:49:08;4.25;;;1.40;;
62149;SDS011;48134;53.586;10.610;2022-07-29T13:51:42;5.15;;;1.60;;
62149;SDS011;48134;53.586;10.610;2022-07-29T13:54:17;3.88;;;1.60;;
62149;SDS011;48134;53.586;10.610;2022-07-29T13:56:45;3.88;;;1.48;;
62149;SDS011;48134;53.586;10.610;2022-07-29T13:59:19;7.50;;;1.77;;
62149;SDS011;48134;53.586;10.610;2022-07-29T14:01:52;8.13;;;1.58;;
62149;SDS011;48134;53.586;10.610;2022-07-29T14:04:20;4.25;;;1.48;;
62149;SDS011;48134;53.586;10.610;2022-07-29T14:06:49;3.78;;;1.30;;
62149;SDS011;48134;53.586;10.610;2022-07-29T14:09:24;5.30;;;1.70;;
62149;SDS011;48134;53.586;10.610;2022-07-29T14:11:52;5.90;;;1.67;;
62149;SDS011;48134;53.586;10.610;2022-07-29T14:14:25;5.93;;;1.57;;
62149;SDS011;48134;53.586;10.610;2022-07-29T14:16:58;6.57;;;1.63;;
62149;SDS011;48134;53.586;10.610;2022-07-29T14:19:31;5.70;;;1.80;;
62149;SDS011;48134;53.586;10.610;2022-07-29T14:22:07;3.90;;;1.45;;
62149;SDS011;48134;53.586;10.610;2022-07-29T14:24:42;6.18;;;1.83;;
62149;SDS011;48134;53.586;10.610;2022-07-29T14:27:16;4.50;;;1.50;;
62149;SDS011;48134;53.586;10.610;2022-07-29T14:29:49;4.82;;;1.50;;
62149;SDS011;48134;53.586;10.610;2022-07-29T14:32:22;4.47;;;1.50;;
62149;SDS011;48134;53.586;10.610;2022-07-29T14:34:55;4.55;;;1.50;;
62149;SDS011;48134;53.586;10.610;2022-07-29T14:37:23;3.85;;;1.50;;
62149;SDS011;48134;53.586;10.610;2022-07-29T14:39:58;3.03;;;1.40;;
62149;SDS011;48134;53.586;10.610;2022-07-29T14:42:34;4.18;;;1.33;;
62149;SDS011;48134;53.586;10.610;2022-07-29T14:45:04;4.22;;;1.40;;
62149;SDS011;48134;53.586;10.610;2022-07-29T14:47:38;6.20;;;1.58;;
62149;SDS011;48134;53.586;10.610;2022-07-29T14:50:11;4.82;;;1.50;;
62149;SDS011;48134;53.586;10.610;2022-07-29T14:52:45;5.65;;;1.70;;
62149;SDS011;48134;53.586;10.610;2022-07-29T14:55:15;8.48;;;1.73;;
62149;SDS011;48134;53.586;10.610;2022-07-29T14:57:44;4.05;;;1.45;;
62149;SDS011;48134;53.586;10.610;2022-07-29T15:00:17;8.77;;;1.60;;
62149;SDS011;48134;53.586;10.610;2022-07-29T15:02:50;4.47;;;1.73;;
62149;SDS011;48134;53.586;10.610;2022-07-29T15:05:24;4.28;;;1.40;;
62149;SDS011;48134;53.586;10.610;2022-07-29T15:07:52;4.53;;;1.77;;
62149;SDS011;48134;53.586;10.610;2022-07-29T15:10:27;6.77;;;1.80;;
62149;SDS011;48134;53.586;10.610;2022-07-29T15:13:01;6.38;;;1.70;;
62149;SDS011;48134;53.586;10.610;2022-07-29T15:15:34;3.70;;;1.53;;
62149;SDS011;48134;53.586;10.610;2022-07-29T15:18:07;6.88;;;1.88;;
62149;SDS011;48134;53.586;10.610;2022-07-29T15:20:41;5.38;;;1.60;;
62149;SDS011;48134;53.586;10.610;2022-07-29T15:23:11;9.73;;;1.60;;
62149;SDS011;48134;53.586;10.610;2022-07-29T15:25:46;4.10;;;1.58;;
62149;SDS011;48134;53.586;10.610;2022-07-29T15:28:19;4.80;;;1.70;;